Have a Safe July 4th! 

Flight Track Log - Related Links

Times and Time Zones

All times are in EST time to prevent confusion due to time zone crossing. See the N201AK flight status page for this flight to view local times or setup timezone preferences in your user account.

Time Position Orientation Groundspeed Altitude Reporting Facility
EST Latitude Longitude Course Direction KTS MPH feet Rate Location/Type
Fri 03:58:45 PM 40.8333 -74.2667 228° Southwest 105 121 1,900  Level New York TRACON
Fri 03:59:39 PM 40.8167 -74.3000 237° Southwest 88 101 2,800 737 Climbing New York TRACON
Fri 04:00:39 PM 40.8000 -74.3167 217° Southwest 98 113 3,300 500 Climbing New York TRACON
Fri 04:01:39 PM 40.7833 -74.3500 237° Southwest 112 129 3,800 350 Climbing New York TRACON
Fri 04:02:39 PM 40.7667 -74.4000 246° West 132 152 4,000 100 Climbing New York TRACON
Fri 04:03:39 PM 40.7500 -74.4333 237° Southwest 131 151 4,000  Level New York TRACON
Fri 04:04:00 PM 40.7089 -74.5279 228° Southwest  Level FlightAware Approximate
Fri 04:04:45 PM 40.7167 -74.4833 229° Southwest 131 151 4,000  Level New York TRACON
Fri 04:05:39 PM 40.7000 -74.5167 237° Southwest 132 152 4,000  Level New York TRACON
Fri 04:06:45 PM 40.7000 -74.5667 270° West 130 150 4,000  Level New York TRACON
Fri 04:07:39 PM 40.7000 -74.6000 270° West 125 144 4,000  Level New York TRACON
Fri 04:08:45 PM 40.7000 -74.6500 270° West 126 145 4,000 -2 Level New York TRACON
Fri 04:52:31 PM 40.0167 -76.5167 237° Southwest 137 158 3,900  Descending Potomac TRACON
Fri 04:53:00 PM 40.0373 -76.4422 237° Southwest  Level FlightAware Approximate
Fri 04:53:25 PM 40.0000 -76.5500 237° Southwest 132 152 4,000  Level Potomac TRACON
Fri 04:54:00 PM 40.0188 -76.4792 237° Southwest  Level FlightAware Approximate
Fri 04:54:25 PM 39.9833 -76.6000 247° West 133 153 4,000  Level Potomac TRACON
Fri 04:55:00 PM 40.0003 -76.5162 237° Southwest  Level FlightAware Approximate
Fri 04:55:26 PM 39.9667 -76.6333 237° Southwest 133 153 3,900  Level Potomac TRACON
Fri 04:56:00 PM 39.9818 -76.5531 237° Southwest  Level FlightAware Approximate
Fri 04:56:26 PM 39.9500 -76.6667 237° Southwest 129 148 3,900  Level Potomac TRACON
Fri 04:57:00 PM 39.9633 -76.5901 237° Southwest  Level FlightAware Approximate
Fri 04:57:26 PM 39.9333 -76.7167 247° West 125 144 3,900  Level Potomac TRACON
Fri 04:58:27 PM 39.9000 -76.7500 217° Southwest 129 148 3,900 50 Level Potomac TRACON
Fri 04:59:27 PM 39.8833 -76.8000 247° West 125 144 4,000 50 Climbing Potomac TRACON
Fri 05:00:27 PM 39.8667 -76.8333 237° Southwest 131 151 4,000  Level Potomac TRACON
Fri 05:01:27 PM 39.8500 -76.8667 237° Southwest 129 148 4,000 -50 Level Potomac TRACON
Fri 05:02:27 PM 39.8333 -76.9167 247° West 128 147 3,900  Descending Potomac TRACON
Fri 05:03:27 PM 39.8167 -76.9500 237° Southwest 132 152 4,000  Climbing Potomac TRACON
Fri 05:04:27 PM 39.8000 -77.0000 247° West 133 153 3,900  Descending Potomac TRACON
Fri 05:05:27 PM 39.7833 -77.0333 237° Southwest 132 152 4,000 52 Climbing Potomac TRACON
Fri 05:06:22 PM 39.7667 -77.0667 237° Southwest 130 150 4,000  Level Potomac TRACON
Fri 05:07:28 PM 39.7333 -77.1167 229° Southwest 137 158 4,000  Level Potomac TRACON
Fri 05:08:22 PM 39.7167 -77.1500 237° Southwest 132 152 4,000  Level Potomac TRACON
Fri 05:09:22 PM 39.7000 -77.1833 237° Southwest 134 154 4,000  Level Potomac TRACON
Fri 05:10:23 PM 39.6667 -77.2167 218° Southwest 136 157 4,000  Level Potomac TRACON
Fri 05:11:23 PM 39.6333 -77.2500 218° Southwest 138 159 4,000  Level Potomac TRACON
Fri 05:12:23 PM 39.6000 -77.2833 218° Southwest 145 167 4,000  Level Potomac TRACON
Fri 05:13:23 PM 39.5833 -77.3167 237° Southwest 143 165 4,000  Level Potomac TRACON
Fri 05:14:17 PM 39.5500 -77.3500 218° Southwest 138 159 4,000  Level Potomac TRACON
Fri 05:15:23 PM 39.5167 -77.3833 218° Southwest 136 157 4,000 -48 Level Potomac TRACON
Fri 05:16:23 PM 39.4833 -77.4167 218° Southwest 144 166 3,900  Descending Potomac TRACON
Fri 05:17:23 PM 39.4667 -77.4500 237° Southwest 143 165 4,000  Climbing Potomac TRACON
Fri 05:18:24 PM 39.4333 -77.4833 218° Southwest 137 158 3,900 -99 Descending Potomac TRACON
Fri 05:19:24 PM 39.4000 -77.5167 218° Southwest 137 158 3,800 -263 Descending Potomac TRACON
Fri 05:20:18 PM 39.3667 -77.5333 201° Southwest 138 159 3,400 -450 Descending Potomac TRACON
Fri 05:21:24 PM 39.3333 -77.5667 218° Southwest 139 160 2,900 -236 Descending Potomac TRACON
Fri 05:22:25 PM 39.3167 -77.6000 237° Southwest 126 145 2,900  Level Potomac TRACON
Fri 05:23:25 PM 39.2833 -77.6333 218° Southwest 116 133 2,900 -149 Level Potomac TRACON
Fri 05:24:26 PM 39.2500 -77.6333 180° South 147 169 2,600 -347 Descending Potomac TRACON
Fri 05:25:26 PM 39.2167 -77.6167 159° South 164 189 2,200 -300 Descending Potomac TRACON
Fri 05:26:26 PM 39.1667 -77.6000 166° South 157 181 2,000 -300 Descending Potomac TRACON
Fri 05:27:26 PM 39.1333 -77.5833 159° South 152 175 1,600 -474 Descending Potomac TRACON
Fri 05:28:20 PM 39.1000 -77.5667 159° South 138 159 1,100 -316 Descending Potomac TRACON
Fri 05:29:20 PM 39.0667 -77.5667 180° South 99 114 1,000 -236 Descending Potomac TRACON
Fri 05:30:27 PM 39.0667 -77.5500 90° East 94 108 600 -347 Descending Potomac TRACON
Fri 05:31:21 PM 39.0667 -77.5500 90° East 92 106 300 -150 Descending Potomac TRACON
Fri 05:32:27 PM 39.1000 -77.5667 339° North 60 69 300  Level Potomac TRACON

Login

Don't have an account? Register now (free) for customized features, flight alerts, and more!